createdAt,value
2022-11-04T00:01:42.938Z,99609.72
2022-11-04T00:04:13.385Z,99611.06
2022-11-04T00:06:41.743Z,99616.97
2022-11-04T00:09:11.385Z,99610.00
2022-11-04T00:11:56.763Z,99622.88
2022-11-04T00:14:24.528Z,99618.84
2022-11-04T00:17:10.012Z,99616.41
2022-11-04T00:19:56.754Z,99628.81
2022-11-04T00:22:41.931Z,99607.31
2022-11-04T00:25:27.689Z,99605.41
2022-11-04T00:28:21.224Z,99610.00
2022-11-04T00:30:48.946Z,99597.91
2022-11-04T00:33:27.880Z,99598.16
2022-11-04T00:35:58.390Z,99588.72
2022-11-04T00:38:26.671Z,99586.06
2022-11-04T00:40:54.444Z,99590.88
2022-11-04T00:43:22.199Z,99582.28
2022-11-04T00:45:49.920Z,99586.88
2022-11-04T00:48:17.665Z,99588.22
2022-11-04T00:50:45.382Z,99588.19
2022-11-04T00:53:14.455Z,99587.94
2022-11-04T00:55:42.143Z,99586.59
2022-11-04T00:58:09.856Z,99592.81
2022-11-04T01:00:39.355Z,99596.00
2022-11-04T01:03:07.322Z,99584.19
2022-11-04T01:05:38.371Z,99585.53
2022-11-04T01:08:06.282Z,99585.81
2022-11-04T01:10:44.451Z,99580.97
2022-11-04T01:13:12.254Z,99574.78
2022-11-04T01:15:40.035Z,99585.53
2022-11-04T01:18:08.246Z,99584.16
2022-11-04T01:20:36.182Z,99593.06
2022-11-04T01:23:03.904Z,99586.09
2022-11-04T01:25:31.637Z,99585.81
2022-11-04T01:28:00.748Z,99587.44
2022-11-04T01:30:28.493Z,99594.91
2022-11-04T01:32:56.218Z,99579.88
2022-11-04T01:35:23.928Z,99572.91
2022-11-04T01:37:51.641Z,99571.03
2022-11-04T01:40:19.702Z,99569.41
2022-11-04T01:42:47.415Z,99565.34
2022-11-04T01:45:17.614Z,99561.91
2022-11-04T01:47:49.332Z,99553.56
2022-11-04T01:50:20.326Z,99554.59
2022-11-04T01:52:52.608Z,99554.09
2022-11-04T01:55:24.333Z,99553.81
2022-11-04T01:57:53.581Z,99557.88
2022-11-04T02:00:22.880Z,99567.00
2022-11-04T02:02:55.796Z,99548.19
2022-11-04T02:05:24.216Z,99546.56
2022-11-04T02:07:54.652Z,99537.44
2022-11-04T02:10:25.924Z,99537.44
2022-11-04T02:12:52.799Z,99542.53
2022-11-04T02:15:28.297Z,99556.78
2022-11-04T02:18:10.079Z,99563.50
2022-11-04T02:21:01.055Z,99564.81
2022-11-04T02:23:59.338Z,99565.66
2022-11-04T02:26:48.396Z,99565.34
2022-11-04T02:29:28.528Z,99565.91
2022-11-04T02:32:04.607Z,99571.31
2022-11-04T02:34:40.127Z,99566.97
2022-11-04T02:37:14.500Z,99568.59
2022-11-04T02:39:51.170Z,99561.06
2022-11-04T02:42:28.403Z,99566.44
2022-11-04T02:45:09.737Z,99565.66
2022-11-04T02:47:38.174Z,99570.19
2022-11-04T02:50:11.023Z,99569.38
2022-11-04T02:52:48.705Z,99579.09
2022-11-04T02:55:22.201Z,99583.66
2022-11-04T02:57:51.298Z,99580.69
2022-11-04T03:00:21.516Z,99582.56
2022-11-04T03:02:53.095Z,99587.13
2022-11-04T03:05:23.626Z,99586.88
2022-11-04T03:07:52.736Z,99582.53
2022-11-04T03:10:25.312Z,99581.22
2022-11-04T03:12:57.303Z,99577.44
2022-11-04T03:15:29.092Z,99586.88
2022-11-04T03:18:01.907Z,99576.34
2022-11-04T03:20:29.991Z,99580.41
2022-11-04T03:22:59.762Z,99578.78
2022-11-04T03:25:32.248Z,99584.16
2022-11-04T03:28:05.588Z,99589.00
2022-11-04T03:30:41.295Z,99588.19
2022-11-04T03:33:15.380Z,99580.94
2022-11-04T03:35:43.145Z,99582.03
2022-11-04T03:38:10.902Z,99581.47
2022-11-04T03:40:38.831Z,99570.69
2022-11-04T03:43:10.939Z,99583.31
2022-11-04T03:45:40.447Z,99580.38
2022-11-04T03:48:08.341Z,99571.75
2022-11-04T03:50:41.505Z,99574.19
2022-11-04T03:53:10.682Z,99572.81
2022-11-04T03:55:46.616Z,99576.09
2022-11-04T03:58:22.180Z,99575.50
2022-11-04T04:00:57.861Z,99578.97
2022-11-04T04:03:29.352Z,99582.19
2022-11-04T04:06:02.983Z,99581.16
2022-11-04T04:08:35.604Z,99594.28
2022-11-04T04:11:08.483Z,99587.03
2022-11-04T04:13:43.018Z,99601.03
2022-11-04T04:16:16.668Z,99601.81
2022-11-04T04:18:51.413Z,99610.94
2022-11-04T04:21:23.731Z,99625.47
2022-11-04T04:24:10.307Z,99632.50
2022-11-04T04:26:56.766Z,99638.13
2022-11-04T04:29:25.429Z,99644.03
2022-11-04T04:31:57.743Z,99649.16
2022-11-04T04:34:27.665Z,99646.47
2022-11-04T04:36:59.945Z,99649.72
2022-11-04T04:39:50.719Z,99667.47
2022-11-04T04:42:36.345Z,99657.22
2022-11-04T04:45:06.392Z,99657.72
2022-11-04T04:47:44.139Z,99671.97
2022-11-04T04:50:14.472Z,99678.97
2022-11-04T04:52:44.958Z,99688.38
2022-11-04T04:55:13.471Z,99689.78
2022-11-04T04:57:41.438Z,99689.72
2022-11-04T05:00:12.636Z,99679.22
2022-11-04T05:02:41.827Z,99676.78
2022-11-04T05:05:10.170Z,99684.56
2022-11-04T05:07:38.068Z,99683.53
2022-11-04T05:10:06.500Z,99673.28
2022-11-04T05:12:49.964Z,99686.19
2022-11-04T05:15:17.701Z,99683.81
2022-11-04T05:17:46.893Z,99693.78
2022-11-04T05:20:14.778Z,99698.88
2022-11-04T05:22:42.467Z,99695.13
2022-11-04T05:25:10.721Z,99709.38
2022-11-04T05:27:38.440Z,99711.25
2022-11-04T05:30:07.560Z,99701.59
2022-11-04T05:32:35.375Z,99708.03
2022-11-04T05:35:05.060Z,99713.16
2022-11-04T05:37:32.850Z,99718.81
2022-11-04T05:40:00.588Z,99720.66
2022-11-04T05:42:29.420Z,99714.50
2022-11-04T05:44:57.187Z,99724.47
2022-11-04T05:47:24.957Z,99727.91
2022-11-04T05:49:55.809Z,99728.22
2022-11-04T05:52:24.880Z,99725.00
2022-11-04T05:54:52.846Z,99729.28
2022-11-04T05:57:20.570Z,99729.53
2022-11-04T05:59:48.350Z,99729.53
2022-11-04T06:02:16.312Z,99729.81
2022-11-04T06:04:44.132Z,99731.44
2022-11-04T06:07:11.944Z,99736.81
2022-11-04T06:09:41.325Z,99736.81
2022-11-04T06:12:10.138Z,99741.66
2022-11-04T06:14:38.050Z,99741.69
2022-11-04T06:17:06.352Z,99746.53
2022-11-04T06:19:34.086Z,99750.84
2022-11-04T06:22:05.968Z,99770.78
2022-11-04T06:24:33.663Z,99772.91
2022-11-04T06:27:24.009Z,99780.22
2022-11-04T06:29:52.715Z,99772.94
2022-11-04T06:32:20.567Z,99782.91
2022-11-04T06:34:48.425Z,99784.78
2022-11-04T06:37:16.168Z,99780.47
2022-11-04T06:39:43.915Z,99780.47
2022-11-04T06:42:11.624Z,99784.50
2022-11-04T06:44:40.683Z,99800.66
2022-11-04T06:47:08.800Z,99806.28
2022-11-04T06:49:36.520Z,99811.16
2022-11-04T06:52:04.669Z,99813.03
2022-11-04T06:54:32.404Z,99805.22
2022-11-04T06:57:00.159Z,99820.84
2022-11-04T06:59:29.656Z,99828.59
2022-11-04T07:01:58.836Z,99830.25
2022-11-04T07:04:26.607Z,99829.44
2022-11-04T07:06:54.320Z,99837.50
2022-11-04T07:09:22.089Z,99851.50
2022-11-04T07:11:49.819Z,99855.25
2022-11-04T07:14:17.565Z,99851.75
2022-11-04T07:16:45.327Z,99852.56
2022-11-04T07:19:15.047Z,99846.91
2022-11-04T07:21:42.760Z,99852.56
2022-11-04T07:24:10.520Z,99861.97
2022-11-04T07:26:38.234Z,99856.88
2022-11-04T07:29:06.674Z,99867.34
2022-11-04T07:31:36.432Z,99864.66
2022-11-04T07:34:07.716Z,99866.00
2022-11-04T07:36:36.818Z,99868.69
2022-11-04T07:39:06.619Z,99875.44
2022-11-04T07:41:34.734Z,99867.34
2022-11-04T07:44:05.546Z,99862.81
2022-11-04T07:46:33.711Z,99870.06
2022-11-04T07:49:01.470Z,99887.84
2022-11-04T07:51:32.169Z,99898.88
2022-11-04T07:54:01.410Z,99880.31
2022-11-04T07:56:30.592Z,99889.19
2022-11-04T07:58:58.415Z,99881.38
2022-11-04T08:01:26.307Z,99894.56
2022-11-04T08:03:54.037Z,99893.22
2022-11-04T08:06:22.431Z,99896.72
2022-11-04T08:08:53.823Z,99885.69
2022-11-04T08:11:28.187Z,99893.75
2022-11-04T08:13:56.664Z,99890.81
2022-11-04T08:16:28.793Z,99890.25
2022-11-04T08:19:01.653Z,99882.72
2022-11-04T08:21:31.088Z,99883.81
2022-11-04T08:23:58.823Z,99886.75
2022-11-04T08:26:27.943Z,99894.28
2022-11-04T08:28:55.868Z,99897.53
2022-11-04T08:31:25.463Z,99902.66
2022-11-04T08:33:53.679Z,99902.09
2022-11-04T08:36:23.990Z,99910.16
2022-11-04T08:38:52.248Z,99912.59
2022-11-04T08:41:22.515Z,99929.81
2022-11-04T08:43:51.851Z,99930.09
2022-11-04T08:46:19.615Z,99929.00
2022-11-04T08:48:47.426Z,99931.19
2022-11-04T08:51:17.363Z,99944.63
2022-11-04T08:53:45.305Z,99939.75
2022-11-04T08:56:14.709Z,99945.38
2022-11-04T08:58:42.496Z,99941.66
2022-11-04T09:01:12.675Z,99944.84
2022-11-04T09:03:41.709Z,99933.03
2022-11-04T09:06:11.688Z,99939.50
2022-11-04T09:08:40.495Z,99944.91
2022-11-04T09:11:09.734Z,99932.50
2022-11-04T09:13:39.820Z,99936.00
2022-11-04T09:16:09.307Z,99935.22
2022-11-04T09:18:38.456Z,99948.66
2022-11-04T09:21:07.803Z,99950.03
2022-11-04T09:23:35.600Z,99942.75
2022-11-04T09:26:08.470Z,99939.53
2022-11-04T09:28:36.591Z,99949.78
2022-11-04T09:31:08.408Z,99955.66
2022-11-04T09:33:36.228Z,99953.50
2022-11-04T09:36:05.824Z,99958.34
2022-11-04T09:38:33.572Z,99958.63
2022-11-04T09:41:01.644Z,99962.69
2022-11-04T09:43:37.236Z,99972.34
2022-11-04T09:46:05.320Z,99967.53
2022-11-04T09:48:35.307Z,99971.00
2022-11-04T09:51:12.809Z,99975.59
2022-11-04T09:53:51.256Z,99971.56
2022-11-04T09:56:22.375Z,99975.88
2022-11-04T09:58:50.656Z,99976.69
2022-11-04T10:01:29.546Z,99971.06
2022-11-04T10:04:09.886Z,99969.97
2022-11-04T10:06:46.511Z,99972.91
2022-11-04T10:09:21.315Z,99965.09
2022-11-04T10:11:58.135Z,99957.28
2022-11-04T10:14:41.440Z,99947.88
2022-11-04T10:17:17.208Z,99939.53
2022-11-04T10:19:54.592Z,99935.50
2022-11-04T10:22:30.000Z,99940.88
2022-11-04T10:25:05.685Z,99948.16
2022-11-04T10:27:36.364Z,99948.97
2022-11-04T10:30:11.112Z,99952.72
2022-11-04T10:32:43.809Z,99950.84
2022-11-04T10:35:16.964Z,99946.00
2022-11-04T10:37:46.300Z,99950.03
2022-11-04T10:40:19.093Z,99947.59
2022-11-04T10:42:47.306Z,99953.81
2022-11-04T10:45:15.299Z,99958.13
2022-11-04T10:47:51.197Z,99962.66
2022-11-04T10:50:37.528Z,99981.84
2022-11-04T10:53:15.615Z,99975.88
2022-11-04T10:55:51.470Z,99971.06
2022-11-04T10:58:23.156Z,99986.94
2022-11-04T11:00:51.714Z,99988.03
2022-11-04T11:03:29.232Z,99988.31
2022-11-04T11:06:12.216Z,99999.03
2022-11-04T11:08:42.685Z,100011.50
2022-11-04T11:11:10.812Z,100028.44
2022-11-04T11:13:40.600Z,100045.97
2022-11-04T11:16:11.700Z,100044.91
2022-11-04T11:18:40.216Z,100048.41
2022-11-04T11:21:11.550Z,100046.25
2022-11-04T11:23:43.556Z,100048.13
2022-11-04T11:26:13.911Z,100050.22
2022-11-04T11:28:42.107Z,100049.22
2022-11-04T11:31:16.245Z,100044.06
2022-11-04T11:33:50.787Z,100042.75
2022-11-04T11:36:21.098Z,100039.47
2022-11-04T11:39:01.003Z,100043.81
2022-11-04T11:41:32.284Z,100035.75
2022-11-04T11:44:04.180Z,100038.69
2022-11-04T11:46:34.106Z,100040.56
2022-11-04T11:49:04.191Z,100038.41
2022-11-04T11:51:33.433Z,100029.28
2022-11-04T11:54:14.973Z,100034.13
2022-11-04T11:57:11.849Z,100033.06
2022-11-04T12:02:30.976Z,100035.97
2022-11-04T12:10:51.452Z,100050.31
2022-11-04T12:13:27.844Z,100046.53
2022-11-04T12:16:14.290Z,100046.78
2022-11-04T12:18:53.019Z,100036.28
2022-11-04T12:21:31.440Z,100043.00
2022-11-04T12:24:03.180Z,100041.94
2022-11-04T12:26:38.091Z,100038.44
2022-11-04T12:29:19.906Z,100042.75
2022-11-04T12:31:54.120Z,100053.00
2022-11-04T12:34:31.671Z,100057.81
2022-11-04T12:37:08.883Z,100061.09
2022-11-04T12:39:53.247Z,100063.78
2022-11-04T12:42:32.375Z,100064.56
2022-11-04T12:45:08.823Z,100066.47
2022-11-04T12:47:38.382Z,100061.59
2022-11-04T12:50:12.900Z,100063.22
2022-11-04T12:53:02.171Z,100071.56
2022-11-04T12:55:43.353Z,100063.22
2022-11-04T12:58:22.617Z,100073.47
2022-11-04T13:00:57.998Z,100071.31
2022-11-04T13:03:31.496Z,100081.00
2022-11-04T13:06:03.553Z,100078.88
2022-11-04T13:08:34.550Z,100086.94
2022-11-04T13:11:22.519Z,100084.78
2022-11-04T13:14:01.757Z,100091.25
2022-11-04T13:16:31.226Z,100090.16
2022-11-04T13:18:59.683Z,100089.13
2022-11-04T13:21:29.677Z,100107.44
2022-11-04T13:24:01.950Z,100104.72
2022-11-04T13:26:29.806Z,100105.81
2022-11-04T13:29:08.292Z,100111.22
2022-11-04T13:31:45.824Z,100108.50
2022-11-04T13:34:23.242Z,100116.06
2022-11-04T13:36:57.772Z,100116.88
2022-11-04T13:39:29.225Z,100127.38
2022-11-04T13:42:21.616Z,100127.91
2022-11-04T13:44:52.499Z,100127.13
2022-11-04T13:47:24.133Z,100131.16
2022-11-04T13:49:53.728Z,100127.91
2022-11-04T13:52:21.792Z,100130.34
2022-11-04T13:54:54.745Z,100140.88
2022-11-04T13:57:24.275Z,100131.97
2022-11-04T14:00:20.574Z,100136.81
2022-11-04T14:02:49.165Z,100140.59
2022-11-04T14:05:47.429Z,100140.03
2022-11-04T14:08:15.848Z,100134.13
2022-11-04T14:11:00.060Z,100141.94
2022-11-04T14:14:10.483Z,100153.81
2022-11-04T14:16:42.014Z,100152.47
2022-11-04T14:19:56.909Z,100148.44
2022-11-04T14:22:49.098Z,100152.47
2022-11-04T14:25:23.488Z,100154.09
2022-11-04T14:27:53.400Z,100151.41
2022-11-04T14:30:33.123Z,100158.41
2022-11-04T14:33:04.808Z,100159.22
2022-11-04T14:35:33.195Z,100156.78
2022-11-04T14:38:07.880Z,100161.63
2022-11-04T14:40:50.716Z,100166.50
2022-11-04T14:43:31.219Z,100171.06
2022-11-04T14:46:01.047Z,100161.91
2022-11-04T14:48:32.149Z,100171.06
2022-11-04T14:51:00.032Z,100168.66
2022-11-04T14:53:32.624Z,100177.81
2022-11-04T14:56:11.837Z,100179.16
2022-11-04T14:58:39.634Z,100176.75
2022-11-04T15:01:11.891Z,100186.72
2022-11-04T15:06:40.645Z,100184.84
2022-11-04T15:09:23.803Z,100192.94
2022-11-04T15:12:09.331Z,100199.69
2022-11-04T15:14:37.550Z,100202.63
2022-11-04T15:17:05.516Z,100211.25
2022-11-04T15:19:36.403Z,100215.31
2022-11-04T15:22:06.052Z,100221.00
2022-11-04T15:24:34.177Z,100228.28
2022-11-04T15:27:04.011Z,100230.44
2022-11-04T15:29:31.803Z,100236.88
2022-11-04T15:32:04.872Z,100235.84
2022-11-04T15:34:34.952Z,100243.09
2022-11-04T15:37:05.388Z,100238.50
2022-11-04T15:39:35.769Z,100253.38
2022-11-04T15:42:23.802Z,100244.47
2022-11-04T15:44:52.944Z,100258.22
2022-11-04T15:47:27.086Z,100248.78
2022-11-04T15:50:04.389Z,100254.16
2022-11-04T15:52:32.152Z,100248.50
2022-11-04T15:55:00.895Z,100249.59
2022-11-04T15:57:30.655Z,100251.72
2022-11-04T16:00:03.436Z,100249.84
2022-11-04T16:02:33.132Z,100253.09
2022-11-04T16:05:22.515Z,100257.94
2022-11-04T16:07:52.168Z,100256.06
2022-11-04T16:10:30.055Z,100260.13
2022-11-04T16:12:59.007Z,100257.44
2022-11-04T16:15:35.688Z,100253.09
2022-11-04T16:18:05.576Z,100264.69
2022-11-04T16:20:35.925Z,100266.31
2022-11-04T16:23:05.128Z,100275.75
2022-11-04T16:25:35.666Z,100279.53
2022-11-04T16:28:03.722Z,100278.19
2022-11-04T16:30:31.763Z,100282.25
2022-11-04T16:33:10.270Z,100281.41
2022-11-04T16:35:42.901Z,100287.38
2022-11-04T16:38:10.675Z,100296.53
2022-11-04T16:40:38.383Z,100286.56
2022-11-04T16:43:06.134Z,100299.78
2022-11-04T16:45:36.036Z,100293.84
2022-11-04T16:48:05.315Z,100306.00
2022-11-04T16:50:33.081Z,100314.34
2022-11-04T16:53:05.477Z,100313.00
2022-11-04T16:55:33.415Z,100322.94
2022-11-04T16:58:04.585Z,100318.09
2022-11-04T17:00:33.303Z,100321.31
2022-11-04T17:03:01.368Z,100323.22
2022-11-04T17:05:29.438Z,100321.59
2022-11-04T17:08:04.481Z,100330.78
2022-11-04T17:10:36.157Z,100334.56
2022-11-04T17:13:04.893Z,100333.22
2022-11-04T17:15:33.344Z,100339.13
2022-11-04T17:18:02.988Z,100334.53
2022-11-04T17:20:31.730Z,100338.03
2022-11-04T17:22:59.841Z,100343.19
2022-11-04T17:25:29.344Z,100349.91
2022-11-04T17:27:58.418Z,100355.00
2022-11-04T17:30:26.455Z,100353.94
2022-11-04T17:32:54.165Z,100350.69
2022-11-04T17:35:22.207Z,100354.19
2022-11-04T17:37:52.636Z,100352.56
2022-11-04T17:40:21.791Z,100358.78
2022-11-04T17:43:11.944Z,100354.47
2022-11-04T17:45:42.634Z,100353.69
2022-11-04T17:48:11.302Z,100367.94
2022-11-04T17:50:41.346Z,100371.72
2022-11-04T17:53:09.559Z,100366.31
2022-11-04T17:55:40.017Z,100366.56
2022-11-04T17:58:07.805Z,100372.00
2022-11-04T18:00:35.611Z,100375.50
2022-11-04T18:03:06.662Z,100374.16
2022-11-04T18:05:34.728Z,100378.22
2022-11-04T18:08:04.230Z,100380.59
2022-11-04T18:10:31.958Z,100384.66
2022-11-04T18:12:59.683Z,100396.19
2022-11-04T18:15:28.295Z,100400.56
2022-11-04T18:17:56.007Z,100403.25
2022-11-04T18:20:25.096Z,100405.41
2022-11-04T18:22:52.802Z,100410.28
2022-11-04T18:25:20.519Z,100403.25
2022-11-04T18:27:48.775Z,100401.91
2022-11-04T18:30:16.841Z,100405.66
2022-11-04T18:32:44.555Z,100403.50
2022-11-04T18:35:12.264Z,100406.41
2022-11-04T18:37:46.731Z,100403.97
2022-11-04T18:40:15.704Z,100406.22
2022-11-04T18:42:44.114Z,100410.19
2022-11-04T18:45:12.178Z,100402.66
2022-11-04T18:47:39.867Z,100411.34
2022-11-04T18:50:08.357Z,100408.91
2022-11-04T18:52:36.104Z,100409.16
2022-11-04T18:55:05.971Z,100409.59
2022-11-04T18:57:33.716Z,100411.00
2022-11-04T19:00:03.143Z,100416.38
2022-11-04T19:02:32.339Z,100424.16
2022-11-04T19:05:00.214Z,100417.66
2022-11-04T19:07:27.967Z,100422.53
2022-11-04T19:09:55.988Z,100417.94
2022-11-04T19:12:42.547Z,100427.41
2022-11-04T19:15:10.984Z,100430.84
2022-11-04T19:17:38.732Z,100428.13
2022-11-04T19:20:12.164Z,100423.59
2022-11-04T19:22:41.136Z,100427.84
2022-11-04T19:25:09.604Z,100436.44
2022-11-04T19:27:38.753Z,100442.38
2022-11-04T19:30:07.663Z,100455.06
2022-11-04T19:32:35.402Z,100452.38
2022-11-04T19:35:03.123Z,100449.41
2022-11-04T19:37:31.244Z,100456.38
2022-11-04T19:39:58.986Z,100466.63
2022-11-04T19:42:44.576Z,100460.94
2022-11-04T19:45:13.676Z,100466.31
2022-11-04T19:47:41.389Z,100465.53
2022-11-04T19:50:09.623Z,100465.00
2022-11-04T19:52:37.392Z,100467.44
2022-11-04T19:55:05.980Z,100469.00
2022-11-04T19:57:33.775Z,100470.31
2022-11-04T20:00:01.493Z,100469.44
2022-11-04T20:02:31.197Z,100471.16
2022-11-04T20:04:59.196Z,100483.28
2022-11-04T20:07:26.909Z,100487.59
2022-11-04T20:09:54.950Z,100487.31
2022-11-04T20:12:40.486Z,100485.16
2022-11-04T20:15:10.652Z,100487.75
2022-11-04T20:17:40.063Z,100499.47
2022-11-04T20:20:08.403Z,100493.25
2022-11-04T20:22:36.151Z,100496.00
2022-11-04T20:25:04.069Z,100499.84
2022-11-04T20:27:32.284Z,100496.97
2022-11-04T20:30:00.081Z,100510.03
2022-11-04T20:32:30.181Z,100503.28
2022-11-04T20:34:59.518Z,100512.91
2022-11-04T20:37:27.774Z,100509.75
2022-11-04T20:39:55.601Z,100513.88
2022-11-04T20:42:23.382Z,100517.31
2022-11-04T20:44:51.597Z,100526.84
2022-11-04T20:47:19.514Z,100526.06
2022-11-04T20:49:47.376Z,100530.63
2022-11-04T20:52:16.541Z,100531.69
2022-11-04T20:54:44.298Z,100536.16
2022-11-04T20:57:12.062Z,100539.53
2022-11-04T20:59:40.108Z,100541.06
2022-11-04T21:02:08.574Z,100547.81
2022-11-04T21:04:36.655Z,100544.34
2022-11-04T21:07:04.543Z,100548.81
2022-11-04T21:09:33.630Z,100552.50
2022-11-04T21:12:03.188Z,100544.88
2022-11-04T21:14:34.548Z,100558.88
2022-11-04T21:17:03.073Z,100558.63
2022-11-04T21:19:30.987Z,100563.97
2022-11-04T21:21:58.706Z,100563.66
2022-11-04T21:24:26.436Z,100562.09
2022-11-04T21:26:55.512Z,100573.66
2022-11-04T21:29:23.228Z,100573.75
2022-11-04T21:31:50.959Z,100583.34
2022-11-04T21:34:18.723Z,100589.22
2022-11-04T21:36:46.550Z,100581.19
2022-11-04T21:39:14.380Z,100584.63
2022-11-04T21:41:42.121Z,100584.03
2022-11-04T21:44:13.920Z,100595.34
2022-11-04T21:46:42.331Z,100599.88
2022-11-04T21:49:12.596Z,100595.63
2022-11-04T21:51:40.325Z,100606.09
2022-11-04T21:54:08.642Z,100607.47
2022-11-04T21:56:36.409Z,100607.13
2022-11-04T21:59:04.767Z,100603.06
2022-11-04T22:01:33.964Z,100601.78
2022-11-04T22:04:03.079Z,100608.97
2022-11-04T22:06:35.095Z,100610.06
2022-11-04T22:09:05.885Z,100611.44
2022-11-04T22:11:36.263Z,100614.59
2022-11-04T22:14:07.525Z,100608.00
2022-11-04T22:16:38.461Z,100606.63
2022-11-04T22:19:07.741Z,100605.38
2022-11-04T22:21:35.499Z,100608.56
2022-11-04T22:24:04.599Z,100603.88
2022-11-04T22:26:33.354Z,100607.56
2022-11-04T22:29:01.332Z,100613.69
2022-11-04T22:31:31.569Z,100609.75
2022-11-04T22:34:01.308Z,100608.06
2022-11-04T22:36:31.040Z,100604.00
2022-11-04T22:38:59.478Z,100608.00
2022-11-04T22:41:28.912Z,100618.88
2022-11-04T22:43:57.074Z,100619.47
2022-11-04T22:46:26.506Z,100621.09
2022-11-04T22:48:54.241Z,100624.09
2022-11-04T22:51:23.341Z,100620.44
2022-11-04T22:53:57.718Z,100617.19
2022-11-04T22:56:30.094Z,100616.25
2022-11-04T22:58:57.992Z,100612.34
2022-11-04T23:01:25.973Z,100615.41
2022-11-04T23:03:54.285Z,100616.34
2022-11-04T23:06:23.450Z,100613.88
2022-11-04T23:08:59.604Z,100621.84
2022-11-04T23:11:46.350Z,100621.63
2022-11-04T23:14:33.002Z,100627.56
2022-11-04T23:17:18.488Z,100622.31
2022-11-04T23:19:46.227Z,100629.06
2022-11-04T23:22:33.033Z,100630.09
2022-11-04T23:25:07.087Z,100629.78
2022-11-04T23:27:53.303Z,100634.53
2022-11-04T23:30:22.536Z,100638.91
2022-11-04T23:32:50.864Z,100635.41
2022-11-04T23:35:36.763Z,100635.53
2022-11-04T23:38:06.465Z,100636.63
2022-11-04T23:40:34.692Z,100643.41
2022-11-04T23:43:03.627Z,100643.00
2022-11-04T23:45:49.008Z,100652.38
2022-11-04T23:48:34.494Z,100657.50
2022-11-04T23:51:20.767Z,100649.38
2022-11-04T23:54:07.205Z,100653.44
2022-11-04T23:56:52.873Z,100651.06
2022-11-04T23:59:38.277Z,100658.38
